Share

首爾, 大韓民國

2014年4月24日 11時36分 (GMT +0900)
IGYEONGG3 海拔 115 ft | 37.53 °N, 126.83 °E | Change Station

Current weather conditions updated 58 seconds ago

Haze
74.5 °F
感覺像 77 °F
2.0
風 變化 風 來自 西北偏西
Gusts 5.0 英里每小時
日出 5:46 AM
日落 7:15 PM
月亮 殘月

今天溫度與昨天差不多

氣壓 30.21 英寸
能見度 1.6 英里
多雲
高溫指數 77 °F
露點 51 °F
濕度 44%
降雨量 0.00 英寸
積雪深度 不適用。
紫外線 4.3 / 16
花粉 不適用。
空氣質素 不適用。
Flu Activity 不適用。
METAR RKSI 240230Z 30007KT 2500 HZ NSC 21/10 Q1023 NOSIG

More Conditions Fewer Conditions

氣壓 30.21 英寸
能見度 1.6 英里
多雲
高溫指數 77 °F
露點 51 °F
濕度 44%
降雨量 0.00 英寸
積雪深度 不適用。
紫外線 4.3 / 16
花粉 不適用。
空氣質素 不適用。
Flu Activity 不適用。
METAR RKSI 240230Z 30007KT 2500 HZ NSC 21/10 Q1023 NOSIG

More Conditions Fewer Conditions

10-Day Weather Forecast

Almanac

天文

Apr. 24, 2014 昇起 降落
實際時間 05:46 KST 19:15 KST
民用曙暮光 05:18 KST 19:42 KST
航海曙暮光 04:45 KST 20:16 KST
天文學微明 04:10 KST 20:51 KST
月亮 02:27 KST 13:57 KST
可見光的長度 14h 24m
白晝時間
13h 29m
Tomorrow will be 2m 10s longer.
殘月, 30% of the Moon is Illuminated
4月 23
殘月
4月 29
5月 6
第一季
5月 14
滿月
5月 21
第四季

昨天之最

國家高溫 國家低溫

Community

  • Nestled In
    Nestled In
  • Stunning Sunrise
    Stunning Sunrise
  • spring flowers
    spring flowers
  • Earth Day Spectrum Ove' Blue
    Earth Day Spectrum Ove' Blue
  • BARN B&W
    BARN B&W

WunderPhotos

Upload Photos

1,704,516 照片已上傳!

WunderBlogs® & News

Nearby

積雪量

Not available.

沿海水溫

地點 溫度
無任何天氣監測站報告

地震活動

城市 距離 時間和日期
附近沒有最近發生的地震活動。
顯示的最小幅度是2.5。

附近的氣象站

氣象站位置 溫度 高溫指數 露點 濕度 Precip. 海拔 最近更新時間 類型
Bucheon3 74.5 °F 77 °F 51 °F 44% 西北偏西  風  2.0 英里每小時 0.00 英寸 / hr 115 ft 11:35 AM KST 正常

Show More Stations Show Fewer Stations

What do you think?

We're not finished. Please let us know what you like, what you don't like, and what you are still missing.